Terminal Aerodrome Forecast
Issued by NWS

Home | Current Version | Previous Version | Text Only | Print | Product List | Glossary On
Versions: 1 2 3 4 5 6 7 8 9 10 11 12 13 14 15 16 17
261
FTUS42 KTBW 250520
TAFRSW
TAF
KRSW 250520Z 2506/2606 09007KT P6SM SKC
     FM251400 10011G16KT P6SM FEW090 SCT250
     FM251900 11009KT P6SM BKN045
     FM252200 10005KT P6SM BKN040=

USA.gov is the U.S. government's official web portal to all federal, state and local government web resources and services.